Time;durP1;ratioP1;P1;durP2;ratioP2;P2;SDS_P1;SDS_P2;PMS_P1;PMS_P2;Temp;Humidity;BMP_temperature;BMP_pressure;BME280_temperature;BME280_humidity;BME280_pressure;Samples;Min_cycle;Max_cycle;Signal;HPM_P1;HPM_P2
2022/05/23 00:02:16;;;;;;;4.47;1.57;;;;;;;15.14;51.86;97143.42;1696691;84;21081;-76
2022/05/23 00:04:42;;;;;;;6.45;2.33;;;;;;;15.11;51.70;97142.27;1692097;83;21108;-76
2022/05/23 00:07:13;;;;;;;4.28;2.17;;;;;;;14.99;51.98;97138.55;1662544;86;21496;-75
2022/05/23 00:09:40;;;;;;;2.15;1.70;;;;;;;14.89;52.40;97140.06;1691710;83;21024;-75
2022/05/23 00:12:08;;;;;;;4.00;1.92;;;;;;;14.73;52.89;97140.09;1662946;85;20996;-76
2022/05/23 00:14:34;;;;;;;2.20;1.47;;;;;;;14.67;53.05;97141.80;1692030;85;21068;-76
2022/05/23 00:17:00;;;;;;;2.92;1.87;;;;;;;14.61;53.38;97143.02;1662716;86;21088;-76
2022/05/23 00:19:27;;;;;;;2.80;1.80;;;;;;;14.52;53.41;97143.97;1696921;84;21038;-76
2022/05/23 00:21:53;;;;;;;5.00;1.67;;;;;;;14.37;53.69;97140.39;1703526;84;21062;-76
2022/05/23 00:24:20;;;;;;;2.17;1.40;;;;;;;14.30;53.99;97145.72;1703558;84;21038;-76
2022/05/23 00:26:49;;;;;;;3.65;1.70;;;;;;;14.18;54.14;97137.09;1709278;83;21061;-76
2022/05/23 00:29:15;;;;;;;2.60;1.57;;;;;;;14.05;54.18;97135.16;1709487;83;21053;-75
2022/05/23 00:35:17;;;;;;;3.45;1.65;;;;;;;13.92;54.42;97139.00;1709279;84;21026;-75
2022/05/23 00:36:59;;;;;;;3.98;1.32;;;;;;;13.67;55.06;97140.84;1708646;84;21091;-75
2022/05/23 00:39:26;;;;;;;4.15;1.60;;;;;;;13.57;55.00;97149.80;1709299;83;21456;-76
2022/05/23 00:44:38;;;;;;;2.55;1.45;;;;;;;13.41;54.40;97144.45;1717112;83;21059;-76
2022/05/23 00:47:20;;;;;;;2.40;1.30;;;;;;;13.36;54.11;97146.03;1716949;83;21066;-76
2022/05/23 00:49:46;;;;;;;2.02;1.30;;;;;;;13.27;54.01;97154.05;1716992;84;21030;-76
2022/05/23 00:52:33;;;;;;;3.35;1.40;;;;;;;13.20;53.90;97152.64;1717127;83;21057;-75
2022/05/23 00:55:03;;;;;;;1.82;1.45;;;;;;;13.22;53.39;97155.23;1715483;84;21006;-76
2022/05/23 00:57:33;;;;;;;2.30;1.32;;;;;;;13.25;52.85;97151.08;1752984;82;21064;-76
2022/05/23 01:00:01;;;;;;;2.55;1.50;;;;;;;13.32;52.95;97151.99;1753140;82;21402;-75
2022/05/23 01:02:30;;;;;;;3.12;1.40;;;;;;;13.36;52.72;97149.17;1748728;81;21026;-75
2022/05/23 01:04:57;;;;;;;3.00;1.40;;;;;;;13.40;52.36;97152.03;1699892;84;21053;-75
2022/05/23 01:07:24;;;;;;;3.05;1.40;;;;;;;13.44;52.43;97158.91;1732297;83;21008;-76
2022/05/23 01:09:51;;;;;;;1.72;1.32;;;;;;;13.43;52.43;97149.22;1699807;84;21371;-76
2022/05/23 01:12:18;;;;;;;1.98;1.25;;;;;;;13.46;52.61;97140.58;1732883;82;20968;-76
2022/05/23 01:14:51;;;;;;;4.53;1.40;;;;;;;13.52;52.41;97148.74;1697108;83;21015;-76
2022/05/23 01:17:18;;;;;;;1.70;1.17;;;;;;;13.57;52.24;97149.34;1699744;84;21029;-76
2022/05/23 01:19:45;;;;;;;3.10;1.35;;;;;;;13.59;52.10;97150.11;1732581;83;21011;-75
2022/05/23 01:22:24;;;;;;;3.55;1.50;;;;;;;13.58;51.86;97152.39;1731416;83;21441;-75
2022/05/23 01:25:09;;;;;;;5.20;1.70;;;;;;;13.57;51.81;97150.67;1700085;84;21005;-75
2022/05/23 01:27:37;;;;;;;2.42;1.37;;;;;;;13.55;51.77;97150.37;1732444;83;21468;-75
2022/05/23 01:30:05;;;;;;;6.42;2.37;;;;;;;13.54;51.90;97152.16;1699704;84;20970;-75
2022/05/23 01:32:33;;;;;;;3.05;1.20;;;;;;;13.51;51.81;97154.14;1752139;82;21027;-76
2022/05/23 01:35:00;;;;;;;2.77;1.40;;;;;;;13.49;52.31;97154.22;1753080;82;21029;-76
2022/05/23 01:37:26;;;;;;;3.20;1.47;;;;;;;13.52;52.16;97151.41;1753054;82;21051;-76
2022/05/23 01:40:06;;;;;;;1.98;1.40;;;;;;;13.55;51.92;97152.58;1752205;82;20980;-76
2022/05/23 01:42:35;;;;;;;2.05;1.20;;;;;;;13.55;51.87;97150.37;1733255;82;21466;-76
2022/05/23 01:45:02;;;;;;;3.87;1.40;;;;;;;13.53;52.79;97146.95;1727066;82;21480;-75
2022/05/23 01:47:28;;;;;;;6.72;1.90;;;;;;;13.55;52.46;97150.37;1727111;82;20985;-75
2022/05/23 01:49:56;;;;;;;1.62;1.20;;;;;;;13.60;52.51;97146.98;1726944;82;21084;-75
2022/05/23 01:52:37;;;;;;;2.10;1.20;;;;;;;13.66;52.54;97145.30;1727189;82;21106;-77
2022/05/23 01:55:06;;;;;;;3.17;1.20;;;;;;;13.68;52.82;97142.10;1727151;82;21533;-76
2022/05/23 01:57:34;;;;;;;1.85;1.22;;;;;;;13.72;52.57;97138.78;1732830;82;21004;-76
2022/05/23 02:02:47;;;;;;;3.08;1.40;;;;;;;13.81;52.52;97148.05;1726979;82;21032;-75
2022/05/23 02:05:16;;;;;;;4.05;1.32;;;;;;;13.80;52.42;97145.01;1724108;82;21009;-75
2022/05/23 02:07:43;;;;;;;2.60;1.60;;;;;;;13.81;52.53;97143.59;1722359;83;21027;-75
2022/05/23 02:10:10;;;;;;;3.33;1.40;;;;;;;13.81;52.81;97145.39;1692096;85;21088;-74
2022/05/23 02:12:39;;;;;;;3.00;1.52;;;;;;;13.75;52.94;97147.07;1662943;86;21104;-75
2022/05/23 02:15:08;;;;;;;3.58;2.05;;;;;;;13.72;53.31;97148.10;1692134;85;21084;-74
2022/05/23 02:17:39;;;;;;;4.33;1.40;;;;;;;13.72;53.60;97156.09;1695157;85;21076;-74
2022/05/23 02:20:08;;;;;;;3.35;1.70;;;;;;;13.72;55.53;97149.44;1692254;85;21151;-75
2022/05/23 02:22:35;;;;;;;3.10;1.30;;;;;;;13.69;54.22;97153.13;1663170;86;21051;-75
2022/05/23 02:25:15;;;;;;;2.05;1.32;;;;;;;13.69;54.00;97156.25;1691794;85;21020;-75
2022/05/23 02:27:41;;;;;;;3.05;1.37;;;;;;;13.68;53.43;97156.74;1690795;84;21057;-75
2022/05/23 02:30:09;;;;;;;2.98;1.62;;;;;;;13.70;53.26;97155.33;1692335;85;21080;-75
2022/05/23 02:32:35;;;;;;;3.25;1.50;;;;;;;13.72;53.05;97157.42;1692243;84;21008;-75
2022/05/23 02:35:04;;;;;;;1.90;1.05;;;;;;;13.75;53.14;97160.39;1692011;85;21477;-75
2022/05/23 02:37:30;;;;;;;1.90;1.20;;;;;;;13.78;53.31;97161.06;1692179;85;21524;-75
2022/05/23 02:39:58;;;;;;;1.50;1.37;;;;;;;13.79;53.29;97160.11;1692146;85;21062;-75
2022/05/23 02:42:25;;;;;;;3.20;1.40;;;;;;;13.84;53.23;97157.21;1689088;84;21458;-75
2022/05/23 02:44:51;;;;;;;3.50;1.40;;;;;;;13.82;52.98;97154.62;1686765;85;21077;-75
2022/05/23 02:47:20;;;;;;;1.60;1.20;;;;;;;13.78;53.19;97158.41;1686716;84;21110;-75
2022/05/23 02:49:47;;;;;;;2.00;1.10;;;;;;;13.79;53.24;97153.45;1686793;84;21067;-75
2022/05/23 02:52:15;;;;;;;2.02;1.37;;;;;;;13.80;53.35;97150.33;1686602;84;21105;-75
2022/05/23 02:54:43;;;;;;;2.15;1.30;;;;;;;13.82;52.95;97156.42;1687188;84;21447;-75
2022/05/23 02:57:10;;;;;;;1.45;1.10;;;;;;;13.76;52.56;97155.44;1686890;85;21062;-74
2022/05/23 02:59:38;;;;;;;2.60;1.07;;;;;;;13.76;52.68;97162.09;1686006;85;21037;-74
2022/05/23 03:04:52;;;;;;;2.67;1.27;;;;;;;13.69;52.34;97160.25;1670193;84;20963;-75
2022/05/23 03:07:19;;;;;;;2.95;1.12;;;;;;;13.68;52.33;97166.52;1681142;85;21023;-74
2022/05/23 03:10:02;;;;;;;2.75;1.40;;;;;;;13.69;52.18;97159.78;1681168;85;21026;-75
2022/05/23 03:12:29;;;;;;;1.60;1.10;;;;;;;13.67;52.20;97161.66;1681326;85;21031;-75
2022/05/23 03:14:56;;;;;;;3.10;1.10;;;;;;;13.70;52.22;97161.50;1685216;84;21039;-75
2022/05/23 03:17:22;;;;;;;1.60;1.15;;;;;;;13.72;52.35;97157.42;1652264;86;21028;-74
2022/05/23 03:19:49;;;;;;;1.55;1.02;;;;;;;13.72;52.40;97160.96;1697514;84;20992;-74
2022/05/23 03:27:46;;;;;;;1.57;1.20;;;;;;;13.69;52.10;97155.80;1701793;84;21047;-75
2022/05/23 03:30:17;;;;;;;2.37;1.00;;;;;;;13.71;52.13;97153.89;1701703;84;21046;-75
2022/05/23 03:32:49;;;;;;;2.70;1.07;;;;;;;13.73;52.06;97148.48;1698546;83;21517;-75
2022/05/23 03:35:16;;;;;;;4.60;1.10;;;;;;;13.73;52.12;97149.36;1701738;84;21090;-75
2022/05/23 03:37:42;;;;;;;2.45;1.02;;;;;;;13.75;52.09;97146.61;1701822;84;21448;-75
2022/05/23 03:40:11;;;;;;;4.42;1.20;;;;;;;13.83;52.10;97152.84;1709937;83;21025;-75
2022/05/23 03:42:39;;;;;;;3.85;1.00;;;;;;;13.84;51.88;97159.38;1732858;81;21029;-75
2022/05/23 03:45:07;;;;;;;3.20;1.00;;;;;;;13.84;52.15;97166.53;1745136;81;21072;-75
2022/05/23 03:47:35;;;;;;;3.37;1.20;;;;;;;13.87;51.93;97161.02;1744923;82;21552;-75
2022/05/23 03:50:05;;;;;;;1.80;1.00;;;;;;;13.90;52.13;97166.17;1744974;81;21020;-75
2022/05/23 03:52:32;;;;;;;4.67;1.25;;;;;;;13.96;52.07;97164.48;1733276;82;21078;-75
2022/05/23 03:54:59;;;;;;;2.42;1.12;;;;;;;14.03;52.12;97164.16;1692012;85;21116;-76
2022/05/23 03:57:25;;;;;;;3.98;2.10;;;;;;;14.07;52.07;97169.70;1691916;83;21063;-76
2022/05/23 03:59:54;;;;;;;2.40;1.30;;;;;;;14.10;52.41;97157.06;1692139;85;21072;-75
2022/05/23 04:02:20;;;;;;;2.15;1.50;;;;;;;14.16;52.25;97165.16;1692067;85;21088;-75
2022/05/23 04:04:47;;;;;;;1.37;0.88;;;;;;;14.23;52.14;97164.33;1688777;84;21022;-75
2022/05/23 04:07:34;;;;;;;2.10;1.10;;;;;;;14.32;52.03;97166.46;1689472;84;21024;-75
2022/05/23 04:10:06;;;;;;;1.80;1.25;;;;;;;14.34;51.73;97159.72;1663947;83;21032;-76
2022/05/23 04:12:33;;;;;;;2.70;1.10;;;;;;;14.35;51.63;97160.09;1685003;85;21032;-75
2022/05/23 04:14:59;;;;;;;2.72;0.90;;;;;;;14.36;51.60;97168.01;1690559;85;21044;-76
2022/05/23 04:17:28;;;;;;;2.70;1.35;;;;;;;14.37;51.56;97159.55;1704141;83;21094;-76
2022/05/23 04:19:54;;;;;;;1.62;1.00;;;;;;;14.38;52.07;97161.26;1694828;84;21041;-76
2022/05/23 04:22:23;;;;;;;3.08;1.22;;;;;;;14.37;51.70;97165.72;1691915;85;20997;-76
2022/05/23 04:24:51;;;;;;;4.15;1.35;;;;;;;14.34;52.03;97165.05;1698638;84;21046;-75
2022/05/23 04:27:18;;;;;;;1.47;1.00;;;;;;;14.30;51.97;97160.38;1693183;84;21013;-75
2022/05/23 04:29:44;;;;;;;1.92;0.90;;;;;;;14.31;51.87;97165.22;1688341;83;21616;-76
2022/05/23 04:35:15;;;;;;;2.17;1.40;;;;;;;14.30;51.79;97155.51;1692057;85;21112;-76
2022/05/23 04:37:48;;;;;;;3.00;0.90;;;;;;;14.27;51.73;97149.88;1690640;85;21044;-77
2022/05/23 04:40:18;;;;;;;1.77;0.90;;;;;;;14.18;51.55;97145.08;1657678;83;21048;-76
2022/05/23 04:42:46;;;;;;;2.67;0.90;;;;;;;14.03;51.93;97150.84;1675589;84;21080;-76
2022/05/23 04:45:14;;;;;;;1.87;0.98;;;;;;;14.01;51.78;97156.72;1683540;83;21016;-76
2022/05/23 04:50:29;;;;;;;2.15;1.10;;;;;;;13.90;51.99;97152.86;1672724;83;21111;-76
2022/05/23 04:52:57;;;;;;;1.95;1.02;;;;;;;13.91;52.13;97161.23;1701342;84;21012;-76
2022/05/23 04:55:25;;;;;;;2.75;1.10;;;;;;;13.88;52.15;97148.56;1701649;84;21024;-76
2022/05/23 04:57:52;;;;;;;3.58;1.05;;;;;;;13.89;52.18;97143.16;1701769;84;21047;-76
2022/05/23 05:00:21;;;;;;;2.30;0.98;;;;;;;13.89;52.19;97143.62;1678903;83;21762;-76
2022/05/23 05:02:49;;;;;;;3.27;1.25;;;;;;;13.91;52.12;97146.58;1714339;83;21021;-76
2022/05/23 05:05:18;;;;;;;1.30;0.90;;;;;;;13.89;52.54;97144.95;1714649;82;21137;-75
2022/05/23 05:07:46;;;;;;;1.27;0.90;;;;;;;13.90;52.96;97154.69;1716147;83;21061;-75
2022/05/23 05:10:12;;;;;;;1.65;1.02;;;;;;;13.90;52.66;97148.86;1716871;83;20973;-75
2022/05/23 05:12:39;;;;;;;1.95;1.20;;;;;;;13.94;52.49;97157.07;1672034;84;21107;-76
2022/05/23 05:15:08;;;;;;;3.85;1.10;;;;;;;13.97;52.73;97152.91;1680656;83;20988;-75
2022/05/23 05:17:38;;;;;;;5.67;1.32;;;;;;;13.98;52.62;97155.95;1682539;84;21123;-76
2022/05/23 05:20:08;;;;;;;2.10;1.00;;;;;;;13.97;52.83;97151.58;1684595;83;21067;-75
2022/05/23 05:22:52;;;;;;;3.22;1.42;;;;;;;14.01;52.94;97153.59;1701499;84;21457;-76
2022/05/23 05:25:23;;;;;;;1.70;0.98;;;;;;;14.06;52.98;97153.31;1681779;85;21077;-76
2022/05/23 05:27:57;;;;;;;;;;;;;;;14.05;53.13;97157.80;1686688;84;21066;-76
2022/05/23 05:30:24;;;;;;;3.30;1.40;;;;;;;14.11;52.61;97149.45;1654894;85;20137;-76
2022/05/23 05:33:09;;;;;;;1.77;1.00;;;;;;;14.07;52.58;97151.06;1657588;85;21021;-76
2022/05/23 05:35:41;;;;;;;3.15;1.30;;;;;;;14.09;52.71;97155.34;1631772;87;21040;-76
2022/05/23 05:38:23;;;;;;;1.80;1.05;;;;;;;14.09;52.30;97151.81;1665587;85;21026;-76
2022/05/23 05:40:56;;;;;;;3.67;1.35;;;;;;;14.14;52.39;97149.73;1686541;84;21418;-76
2022/05/23 05:43:29;;;;;;;1.35;1.00;;;;;;;14.19;52.68;97148.13;1663505;85;21020;-76
2022/05/23 05:46:04;;;;;;;2.85;1.25;;;;;;;14.26;52.34;97153.50;1699782;84;21235;-76
2022/05/23 05:48:40;;;;;;;1.98;1.10;;;;;;;14.28;51.70;97157.41;1698671;84;21454;-76
2022/05/23 05:51:04;;;;;;;9.85;6.12;;;;;;;14.31;52.07;97147.42;1699675;84;21561;-76
2022/05/23 05:53:32;;;;;;;4.53;1.70;;;;;;;14.38;51.86;97149.27;1699722;84;21061;-76
2022/05/23 05:56:02;;;;;;;1.75;1.10;;;;;;;14.43;51.66;97152.98;1673513;84;21481;-76
2022/05/23 05:58:29;;;;;;;2.42;1.10;;;;;;;14.47;51.81;97157.19;1671500;86;21509;-76
2022/05/23 06:00:56;;;;;;;2.50;1.30;;;;;;;14.51;51.76;97160.92;1674845;83;21465;-75
2022/05/23 06:03:26;;;;;;;2.40;1.15;;;;;;;14.49;51.47;97156.14;1696400;84;21035;-76
2022/05/23 06:11:26;;;;;;;2.15;1.17;;;;;;;14.70;51.25;97157.63;1699919;84;21044;-76
2022/05/23 06:14:00;;;;;;;1.75;1.12;;;;;;;14.78;51.01;97162.05;1699879;83;21078;-76
2022/05/23 06:16:38;;;;;;;1.85;1.20;;;;;;;14.84;50.60;97158.16;1685691;83;20980;-76
2022/05/23 06:19:06;;;;;;;3.47;1.10;;;;;;;14.90;50.75;97159.11;1688540;84;21063;-76
2022/05/23 06:21:34;;;;;;;4.95;1.25;;;;;;;14.93;49.52;97160.73;1689026;84;21513;-76
2022/05/23 06:24:01;;;;;;;1.17;1.00;;;;;;;14.97;49.99;97168.94;1671553;86;21038;-76
2022/05/23 06:26:35;;;;;;;2.17;1.37;;;;;;;14.94;50.07;97153.98;1669009;84;21032;-76
2022/05/23 06:29:19;;;;;;;2.17;1.20;;;;;;;14.93;49.58;97153.60;1694050;84;21008;-76
2022/05/23 06:31:47;;;;;;;2.10;1.12;;;;;;;14.91;49.09;97159.02;1667395;84;21067;-76
2022/05/23 06:34:15;;;;;;;1.10;1.00;;;;;;;14.97;49.53;97152.93;1699502;84;21321;-76
2022/05/23 06:36:43;;;;;;;2.12;1.40;;;;;;;15.04;49.51;97148.45;1680553;83;21048;-78
2022/05/23 06:39:10;;;;;;;2.50;1.10;;;;;;;15.09;49.67;97137.52;1679790;83;21421;-78
2022/05/23 06:41:41;;;;;;;2.30;1.00;;;;;;;15.18;50.33;97156.97;1685272;83;21091;-80
2022/05/23 06:44:12;;;;;;;3.00;1.10;;;;;;;15.28;50.29;97147.89;1685987;83;21072;-78
2022/05/23 06:47:02;;;;;;;2.27;1.10;;;;;;;15.36;49.84;97158.58;1675814;83;21021;-78
2022/05/23 06:49:45;;;;;;;1.82;1.12;;;;;;;15.40;49.47;97148.94;1622930;87;21061;-77
2022/05/23 06:52:19;;;;;;;1.20;1.10;;;;;;;15.47;49.19;97152.08;1680528;83;21032;-78
2022/05/23 06:54:54;;;;;;;3.25;1.32;;;;;;;15.43;47.94;97141.20;1722626;82;21042;-78
2022/05/23 06:57:23;;;;;;;2.25;1.12;;;;;;;15.47;48.54;97155.22;1722608;83;21564;-74
2022/05/23 06:59:49;;;;;;;1.05;0.90;;;;;;;15.51;47.45;97160.75;1714618;82;20995;-74
2022/05/23 07:02:16;;;;;;;2.67;1.10;;;;;;;15.43;47.17;97162.56;1716595;83;21008;-74
2022/05/23 07:13:23;;;;;;;1.70;1.40;;;;;;;15.60;47.06;97148.15;1706423;83;21389;-76
2022/05/23 07:15:50;;;;;;;2.77;1.12;;;;;;;15.61;47.03;97151.69;1710453;82;20958;-76
2022/05/23 07:18:18;;;;;;;1.05;0.82;;;;;;;15.68;46.98;97156.54;1717578;82;21528;-75
2022/05/23 07:20:46;;;;;;;2.30;1.00;;;;;;;15.77;46.96;97156.88;1677934;85;21508;-77
2022/05/23 07:23:15;;;;;;;2.22;1.27;;;;;;;15.88;46.44;97153.06;1653313;85;21001;-78
2022/05/23 07:25:43;;;;;;;4.33;0.98;;;;;;;15.93;46.78;97153.65;1676964;83;21060;-78
2022/05/23 07:28:10;;;;;;;2.47;1.25;;;;;;;16.00;46.72;97153.23;1690319;84;21497;-78
2022/05/23 07:30:37;;;;;;;2.22;1.07;;;;;;;16.07;46.64;97145.22;1690015;85;21012;-79
2022/05/23 07:33:04;;;;;;;2.02;1.30;;;;;;;16.17;47.24;97150.33;1675792;84;21047;-76
2022/05/23 07:35:37;;;;;;;1.80;1.10;;;;;;;16.22;46.13;97149.55;1671141;84;20968;-77
2022/05/23 07:38:04;;;;;;;1.95;1.00;;;;;;;16.19;45.90;97145.72;1664551;85;21055;-77
2022/05/23 07:40:31;;;;;;;0.88;0.80;;;;;;;16.11;45.61;97149.38;1669765;85;21281;-77
2022/05/23 07:43:03;;;;;;;2.33;1.07;;;;;;;16.09;45.81;97162.87;1674281;83;21060;-77
2022/05/23 07:45:32;;;;;;;2.27;1.30;;;;;;;16.12;45.64;97159.59;1633744;85;21080;-76
2022/05/23 07:47:59;;;;;;;3.33;1.05;;;;;;;16.14;46.07;97168.36;1664720;84;21075;-77
2022/05/23 07:50:27;;;;;;;2.85;0.93;;;;;;;16.17;45.58;97164.16;1685067;85;21041;-77
2022/05/23 08:01:11;;;;;;;1.25;0.80;;;;;;;16.36;44.97;97169.16;1686220;85;21021;-75
2022/05/23 08:03:40;;;;;;;1.72;1.00;;;;;;;16.39;44.70;97160.08;1658959;86;21056;-75
2022/05/23 08:06:21;;;;;;;3.10;1.07;;;;;;;16.51;45.46;97155.23;1669490;84;21041;-76
2022/05/23 08:08:47;;;;;;;1.40;0.93;;;;;;;16.58;45.09;97154.34;1670441;85;20993;-76
2022/05/23 08:11:14;;;;;;;1.72;1.07;;;;;;;16.50;44.25;97157.03;1666828;85;21636;-76
2022/05/23 08:13:47;;;;;;;2.67;1.05;;;;;;;16.48;45.14;97158.97;1660466;85;21069;-75
2022/05/23 08:16:14;;;;;;;2.25;0.88;;;;;;;16.54;44.29;97160.38;1674431;85;21011;-74
2022/05/23 08:18:41;;;;;;;9.83;5.83;;;;;;;16.57;43.53;97172.19;1668532;84;21036;-74
2022/05/23 08:21:08;;;;;;;1.00;0.90;;;;;;;16.64;43.28;97172.64;1680195;85;21003;-75
2022/05/23 08:23:36;;;;;;;2.55;0.80;;;;;;;16.71;43.41;97165.92;1682187;83;21060;-74
2022/05/23 08:26:10;;;;;;;1.10;0.90;;;;;;;16.72;43.49;97168.97;1676939;84;21633;-72
2022/05/23 08:28:39;;;;;;;1.85;1.00;;;;;;;16.80;43.92;97159.55;1675648;85;21477;-75
2022/05/23 08:31:05;;;;;;;1.30;1.20;;;;;;;16.89;44.43;97162.94;1681731;85;21073;-75
2022/05/23 08:33:33;;;;;;;1.22;0.98;;;;;;;16.96;44.34;97158.89;1679684;85;21060;-76
2022/05/23 08:36:02;;;;;;;3.58;0.95;;;;;;;16.91;43.73;97163.70;1680128;85;21059;-75
2022/05/23 08:38:28;;;;;;;2.20;0.90;;;;;;;16.92;42.54;97167.22;1676549;83;21044;-75
2022/05/23 08:41:18;;;;;;;2.08;1.20;;;;;;;16.89;42.40;97167.81;1676803;85;21091;-76
2022/05/23 08:43:54;;;;;;;1.37;0.90;;;;;;;16.99;42.47;97160.50;1679275;85;21107;-76
2022/05/23 08:46:27;;;;;;;1.62;0.78;;;;;;;17.25;43.18;97172.56;1689275;85;21032;-77
2022/05/23 08:49:11;;;;;;;1.07;0.60;;;;;;;17.36;40.96;97159.77;1688512;85;21004;-74
2022/05/23 08:51:47;;;;;;;0.93;0.72;;;;;;;17.44;41.08;97148.51;1682730;85;21075;-74
2022/05/23 08:54:25;;;;;;;4.20;1.02;;;;;;;17.55;41.59;97153.94;1690671;84;21036;-74
2022/05/23 08:57:03;;;;;;;2.05;0.90;;;;;;;17.64;41.61;97157.77;1664148;86;20994;-74
2022/05/23 08:59:42;;;;;;;2.75;1.70;;;;;;;17.88;42.39;97159.64;1721593;83;21143;-74
2022/05/23 09:02:14;;;;;;;2.65;0.70;;;;;;;18.01;40.49;97159.59;1680836;84;21024;-74
2022/05/23 09:04:55;;;;;;;1.85;0.78;;;;;;;17.90;40.05;97154.55;1679848;83;21038;-76
2022/05/23 09:07:31;;;;;;;0.93;0.75;;;;;;;17.69;39.75;97161.00;1683323;84;21004;-76
2022/05/23 09:10:00;;;;;;;0.82;0.70;;;;;;;17.66;39.92;97150.50;1676732;84;20994;-76
2022/05/23 09:12:27;;;;;;;1.60;0.60;;;;;;;17.75;39.67;97161.89;1678478;85;21418;-76
2022/05/23 09:14:53;;;;;;;1.65;1.25;;;;;;;17.89;39.21;97162.72;1669391;85;21013;-76
2022/05/23 09:17:23;;;;;;;8.25;5.97;;;;;;;17.84;39.20;97159.02;1664203;85;20966;-76
2022/05/23 09:20:08;;;;;;;1.00;0.65;;;;;;;17.77;38.72;97157.77;1667092;84;21449;-76
2022/05/23 09:22:45;;;;;;;1.22;0.72;;;;;;;17.57;38.87;97168.57;1649408;85;21019;-81
2022/05/23 09:25:16;;;;;;;0.90;0.80;;;;;;;17.59;39.46;97163.95;1669834;84;21373;-77
2022/05/23 09:27:46;;;;;;;0.72;0.70;;;;;;;17.46;39.21;97160.83;1672428;85;20998;-79
2022/05/23 09:30:15;;;;;;;1.27;0.70;;;;;;;17.44;40.12;97145.83;1657438;85;21193;-81
2022/05/23 09:32:45;;;;;;;1.70;0.80;;;;;;;17.48;40.26;97143.31;1665188;85;21045;-80
2022/05/23 09:35:18;;;;;;;2.45;0.78;;;;;;;17.50;40.01;97131.98;1678662;85;21038;-81
2022/05/23 09:37:48;;;;;;;1.00;0.80;;;;;;;17.65;40.27;97140.25;1670151;84;21073;-81
2022/05/23 09:40:28;;;;;;;1.32;0.90;;;;;;;17.72;39.29;97133.13;1660227;84;20984;-80
2022/05/23 09:49:08;;;;;;;1.65;0.80;;;;;;;17.87;39.52;97109.69;1681340;83;20989;-79
2022/05/23 09:52:00;;;;;;;1.70;0.80;;;;;;;17.93;38.83;97102.06;1673201;85;21005;-82
2022/05/23 09:54:38;;;;;;;1.27;0.70;;;;;;;17.98;38.17;97111.59;1690456;83;21017;-83
2022/05/23 09:57:08;;;;;;;2.77;0.90;;;;;;;17.97;38.44;97112.56;1651840;84;21552;-81
2022/05/23 09:59:37;;;;;;;2.45;0.70;;;;;;;18.05;39.91;97111.48;1692706;82;21609;-82
2022/05/23 10:02:17;;;;;;;1.60;0.70;;;;;;;18.33;40.66;97102.75;1665835;85;21115;-82
2022/05/23 10:04:45;;;;;;;2.10;1.05;;;;;;;18.47;38.27;97110.61;1663975;86;21116;-83
2022/05/23 10:07:33;;;;;;;1.17;0.80;;;;;;;18.48;38.83;97108.79;1634722;88;21102;-84
2022/05/23 10:10:03;;;;;;;3.62;0.90;;;;;;;18.60;40.12;97097.09;1664016;86;21028;-81
2022/05/23 10:12:37;;;;;;;1.40;0.72;;;;;;;18.81;39.05;97099.59;1621060;87;21572;-82
2022/05/23 10:15:20;;;;;;;2.58;1.00;;;;;;;18.95;38.99;97099.38;1663888;86;21104;-84
2022/05/23 10:18:01;;;;;;;1.87;1.02;;;;;;;19.02;38.15;97098.41;1670479;83;21509;-83
2022/05/23 10:20:31;;;;;;;1.00;0.90;;;;;;;19.00;38.27;97078.38;1679332;84;21012;-83
2022/05/23 10:23:04;;;;;;;1.25;0.90;;;;;;;19.00;36.55;97090.94;1670676;85;21033;-82
2022/05/23 10:25:38;;;;;;;2.12;0.88;;;;;;;19.12;37.11;97094.05;1670714;85;21036;-83
2022/05/23 10:28:14;;;;;;;1.27;0.80;;;;;;;19.15;36.84;97086.70;1666174;85;21096;-84
2022/05/23 10:30:44;;;;;;;1.55;1.00;;;;;;;19.20;35.80;97091.22;1691115;85;21164;-83
2022/05/23 10:33:13;;;;;;;20.17;14.93;;;;;;;19.13;35.55;97101.59;1685484;85;22199;-84
2022/05/23 10:36:02;;;;;;;1.27;1.07;;;;;;;19.24;36.52;97090.01;1697218;84;21097;-82
2022/05/23 10:44:24;;;;;;;2.33;0.98;;;;;;;20.26;34.92;97084.08;1671271;85;21425;-84
2022/05/23 10:46:54;;;;;;;1.27;0.90;;;;;;;20.92;35.08;97085.67;1673959;85;21143;-86
2022/05/23 10:49:46;;;;;;;1.90;1.20;;;;;;;21.54;34.62;97081.27;1663713;85;21036;-85
2022/05/23 10:52:19;;;;;;;28.55;2.22;;;;;;;21.86;31.98;97074.83;1685221;83;21035;-84
2022/05/23 10:55:04;;;;;;;1.15;0.80;;;;;;;23.31;32.46;97080.36;1685773;85;21068;-82
2022/05/23 10:57:49;;;;;;;1.72;1.07;;;;;;;24.27;30.96;97067.44;1660515;86;21083;-79
2022/05/23 11:00:18;;;;;;;2.42;1.00;;;;;;;24.71;29.50;97063.05;1671284;84;21127;-85
2022/05/23 11:02:51;;;;;;;2.42;1.12;;;;;;;24.71;27.32;97075.24;1688967;85;21056;-84
2022/05/23 11:05:21;;;;;;;2.50;1.55;;;;;;;25.13;28.12;97078.61;1687773;85;21461;-84
2022/05/23 11:08:11;;;;;;;3.58;2.77;;;;;;;25.63;26.44;97061.23;1691768;84;21457;-84
2022/05/23 11:11:05;;;;;;;2.85;1.00;;;;;;;25.58;28.20;97063.59;1691714;84;21099;-84
2022/05/23 11:14:01;;;;;;;3.45;1.02;;;;;;;25.16;28.92;97075.56;1679604;85;21027;-85
2022/05/23 11:16:34;;;;;;;1.92;1.20;;;;;;;25.30;25.86;97075.48;1690530;85;21056;-85
2022/05/23 11:19:13;;;;;;;1.80;1.17;;;;;;;24.91;27.06;97078.64;1691772;85;21079;-85
2022/05/23 11:22:02;;;;;;;1.82;1.20;;;;;;;24.43;27.71;97070.80;1708271;84;21452;-85
2022/05/23 11:24:50;;;;;;;4.90;1.35;;;;;;;25.22;27.64;97070.50;1688732;83;21056;-83
2022/05/23 11:35:52;;;;;;;1.47;1.00;;;;;;;26.68;27.11;97071.73;1684619;84;21028;-84
2022/05/23 11:38:20;;;;;;;2.25;1.00;;;;;;;26.09;25.22;97059.98;1686228;85;21116;-83
2022/05/23 11:41:08;;;;;;;1.30;1.00;;;;;;;25.74;25.97;97074.16;1682015;84;21074;-83
2022/05/23 11:43:35;;;;;;;2.17;1.07;;;;;;;25.76;26.32;97072.97;1690955;85;21069;-82
2022/05/23 11:46:05;;;;;;;1.45;1.10;;;;;;;26.66;26.53;97073.30;1697733;84;21032;-82
2022/05/23 11:48:44;;;;;;;4.25;0.90;;;;;;;27.25;23.76;97069.98;1680009;84;21521;-83
2022/05/23 11:51:27;;;;;;;1.62;0.93;;;;;;;27.56;23.83;97058.83;1679434;85;21024;-82
2022/05/23 11:53:58;;;;;;;1.40;0.90;;;;;;;27.17;22.81;97079.02;1691149;84;21391;-83
2022/05/23 11:56:45;;;;;;;3.15;0.93;;;;;;;27.37;22.08;97067.23;1687987;84;21382;-82
2022/05/23 11:59:27;;;;;;;2.20;0.90;;;;;;;27.95;22.81;97052.52;1691722;83;21580;-81
2022/05/23 12:02:11;;;;;;;1.65;1.00;;;;;;;28.65;22.42;97051.16;1685931;83;22478;-84
2022/05/23 12:04:55;;;;;;;4.72;1.05;;;;;;;29.35;22.82;97053.71;1683550;83;21481;-80
2022/05/23 12:07:44;;;;;;;2.20;0.95;;;;;;;30.10;22.54;97047.82;1692125;85;21088;-82
2022/05/23 12:10:28;;;;;;;1.95;1.12;;;;;;;30.67;19.76;97043.33;1680616;84;21000;-82
2022/05/23 12:13:01;;;;;;;2.60;0.90;;;;;;;30.67;20.91;97043.33;1687408;83;22193;-81
2022/05/23 12:15:46;;;;;;;2.58;1.12;;;;;;;29.74;19.99;97052.24;1687355;84;21100;-79
2022/05/23 12:18:20;;;;;;;1.70;1.07;;;;;;;28.52;22.20;97048.23;1635117;85;21042;-81
2022/05/23 12:20:51;;;;;;;2.92;0.80;;;;;;;28.35;23.00;97048.34;1691447;85;21477;-81
2022/05/23 12:23:30;;;;;;;3.35;1.30;;;;;;;28.45;22.58;97046.22;1686069;84;21152;-81
2022/05/23 12:26:08;;;;;;;1.82;1.10;;;;;;;28.11;23.00;97057.53;1680283;84;21110;-81
2022/05/23 12:28:44;;;;;;;3.85;1.17;;;;;;;27.70;23.17;97047.72;1692676;84;21040;-82
2022/05/23 12:31:21;;;;;;;1.62;0.80;;;;;;;27.56;23.30;97056.11;1690059;85;21032;-80
2022/05/23 12:33:48;;;;;;;2.25;1.00;;;;;;;26.36;23.55;97051.20;1691590;84;21008;-81
2022/05/23 12:36:22;;;;;;;2.25;1.20;;;;;;;27.03;24.87;97048.45;1693069;84;21030;-81
2022/05/23 12:38:54;;;;;;;4.45;1.07;;;;;;;27.60;24.11;97047.42;1688285;85;21004;-80
2022/05/23 12:41:39;;;;;;;2.17;0.85;;;;;;;27.92;22.97;97051.51;1691094;85;21064;-80
2022/05/23 12:44:29;;;;;;;3.98;0.82;;;;;;;28.35;23.81;97040.17;1690667;84;21016;-81
2022/05/23 12:47:20;;;;;;;2.35;0.98;;;;;;;29.15;23.32;97042.53;1692158;85;21015;-81
2022/05/23 12:50:11;;;;;;;2.15;0.88;;;;;;;29.49;21.03;97060.22;1681516;84;21008;-80
2022/05/23 12:53:15;;;;;;;5.30;1.20;;;;;;;29.02;21.96;97034.15;1688332;84;21024;-82
2022/05/23 12:56:05;;;;;;;1.98;1.12;;;;;;;29.02;22.75;97028.16;1692019;85;21076;-81
2022/05/23 12:59:05;;;;;;;2.52;1.20;;;;;;;29.43;22.78;97028.73;1685793;84;20988;-81
2022/05/23 13:01:36;;;;;;;8.25;3.45;;;;;;;29.98;21.69;97025.62;1679298;84;21083;-82
2022/05/23 13:04:09;;;;;;;;;;;;;;;30.14;20.66;97019.11;1692207;85;21013;-81